Aviation Digital Data Service (ADDS)

Output produced by TAFs form (1001 UTC 23 July 2014)
found at http://aviationweather.gov/adds/tafs/
 
KAMA 230520Z 2306/2406 20009KT P6SM SCT110 BKN200 
     FM231000 22006KT P6SM SCT200 
     FM231600 14008KT P6SM FEW090 
     FM240100 17010KT P6SM FEW200